createdAt,value
2018-12-30T00:00:01.503Z,3.73
2018-12-30T00:02:31.599Z,4.27
2018-12-30T00:05:01.270Z,4.17
2018-12-30T00:07:32.181Z,4.23
2018-12-30T00:10:03.175Z,5.60
2018-12-30T00:12:32.693Z,4.67
2018-12-30T00:15:02.272Z,4.60
2018-12-30T00:17:31.868Z,4.33
2018-12-30T00:20:01.695Z,4.07
2018-12-30T00:22:33.672Z,4.80
2018-12-30T00:25:03.918Z,4.33
2018-12-30T00:27:33.523Z,4.77
2018-12-30T00:30:03.207Z,4.70
2018-12-30T00:32:32.942Z,4.23
2018-12-30T00:35:02.453Z,3.73
2018-12-30T00:37:31.845Z,4.00
2018-12-30T00:40:01.731Z,4.07
2018-12-30T00:42:31.328Z,3.60
2018-12-30T00:45:00.268Z,3.97
2018-12-30T00:47:29.951Z,3.53
2018-12-30T00:49:59.425Z,3.20
2018-12-30T00:52:28.831Z,3.87
2018-12-30T00:55:00.313Z,3.60
2018-12-30T00:57:30.261Z,2.92
2018-12-30T00:59:59.031Z,3.30
2018-12-30T01:02:28.707Z,3.50
2018-12-30T01:04:58.205Z,3.47
2018-12-30T01:07:27.669Z,3.23
2018-12-30T01:09:57.682Z,3.10
2018-12-30T01:12:29.097Z,3.10
2018-12-30T01:14:58.730Z,3.57
2018-12-30T01:17:28.598Z,6.70
2018-12-30T01:19:58.281Z,4.20
2018-12-30T01:22:28.142Z,4.03
2018-12-30T01:24:58.515Z,4.00
2018-12-30T01:27:27.278Z,4.20
2018-12-30T01:29:56.687Z,3.80
2018-12-30T01:32:28.992Z,3.63
2018-12-30T01:34:59.008Z,3.43
2018-12-30T01:37:28.376Z,4.07
2018-12-30T01:40:00.015Z,2.73
2018-12-30T01:42:29.399Z,3.10
2018-12-30T01:44:59.651Z,3.52
2018-12-30T01:47:29.444Z,3.17
2018-12-30T01:49:59.742Z,3.20
2018-12-30T01:52:29.474Z,3.20
2018-12-30T01:54:59.263Z,3.20
2018-12-30T01:57:30.472Z,3.40
2018-12-30T01:59:59.896Z,4.22
2018-12-30T02:02:28.979Z,3.23
2018-12-30T02:04:57.961Z,2.87
2018-12-30T02:07:28.658Z,2.33
2018-12-30T02:09:57.450Z,3.00
2018-12-30T02:12:26.367Z,3.50
2018-12-30T02:14:55.614Z,2.67
2018-12-30T02:17:24.713Z,2.83
2018-12-30T02:19:53.566Z,3.20
2018-12-30T02:22:22.632Z,2.63
2018-12-30T02:24:51.614Z,2.90
2018-12-30T02:27:21.063Z,2.93
2018-12-30T02:29:50.102Z,2.67
2018-12-30T02:32:19.020Z,3.17
2018-12-30T02:34:49.578Z,4.87
2018-12-30T02:37:19.132Z,2.80
2018-12-30T02:39:48.167Z,2.90
2018-12-30T02:42:16.926Z,2.90
2018-12-30T02:44:45.722Z,2.73
2018-12-30T02:47:14.494Z,3.23
2018-12-30T02:49:43.906Z,2.93
2018-12-30T02:52:14.794Z,3.70
2018-12-30T02:54:43.937Z,3.37
2018-12-30T02:57:13.480Z,3.90
2018-12-30T02:59:43.082Z,4.37
2018-12-30T03:02:11.838Z,3.70
2018-12-30T03:04:40.839Z,3.23
2018-12-30T03:07:10.159Z,3.07
2018-12-30T03:09:38.977Z,4.10
2018-12-30T03:12:08.282Z,3.57
2018-12-30T03:14:37.047Z,3.77
2018-12-30T03:17:05.824Z,3.20
2018-12-30T03:19:34.579Z,2.93
2018-12-30T03:22:04.195Z,3.10
2018-12-30T03:24:33.195Z,3.30
2018-12-30T03:27:02.033Z,3.73
2018-12-30T03:29:31.003Z,3.67
2018-12-30T03:32:00.146Z,3.50
2018-12-30T03:34:29.347Z,2.97
2018-12-30T03:36:58.681Z,2.90
2018-12-30T03:39:28.359Z,2.93
2018-12-30T03:41:57.261Z,3.20
2018-12-30T03:44:26.732Z,3.07
2018-12-30T03:46:58.429Z,3.93
2018-12-30T03:49:27.522Z,3.30
2018-12-30T03:51:56.272Z,3.13
2018-12-30T03:54:33.892Z,3.30
2018-12-30T03:57:02.746Z,2.37
2018-12-30T03:59:31.868Z,3.50
2018-12-30T04:02:00.831Z,3.63
2018-12-30T04:04:30.446Z,3.03
2018-12-30T04:06:59.361Z,3.33
2018-12-30T04:09:28.402Z,3.10
2018-12-30T04:11:57.274Z,2.63
2018-12-30T04:14:26.054Z,3.10
2018-12-30T04:16:57.285Z,3.67
2018-12-30T04:19:26.266Z,2.80
2018-12-30T04:21:55.170Z,4.17
2018-12-30T04:24:24.741Z,3.53
2018-12-30T04:26:53.504Z,3.60
2018-12-30T04:29:24.609Z,3.53
2018-12-30T04:31:53.583Z,3.40
2018-12-30T04:34:22.452Z,3.55
2018-12-30T04:36:51.263Z,3.73
2018-12-30T04:39:20.270Z,3.60
2018-12-30T04:41:50.515Z,3.20
2018-12-30T04:44:19.340Z,3.55
2018-12-30T04:46:48.354Z,3.90
2018-12-30T04:49:17.175Z,4.13
2018-12-30T04:51:46.074Z,3.40
2018-12-30T04:54:15.374Z,3.30
2018-12-30T04:56:44.168Z,3.40
2018-12-30T04:59:15.475Z,3.00
2018-12-30T05:01:44.230Z,3.47
2018-12-30T05:04:12.978Z,3.50
2018-12-30T05:06:41.772Z,3.83
2018-12-30T05:09:10.626Z,3.43
2018-12-30T05:11:39.419Z,3.87
2018-12-30T05:14:08.226Z,3.57
2018-12-30T05:16:37.101Z,3.20
2018-12-30T05:19:05.874Z,3.10
2018-12-30T05:21:34.630Z,3.77
2018-12-30T05:24:04.255Z,3.87
2018-12-30T05:26:33.030Z,3.30
2018-12-30T05:29:02.178Z,3.40
2018-12-30T05:31:31.879Z,3.00
2018-12-30T05:34:00.738Z,3.20
2018-12-30T05:36:29.671Z,4.37
2018-12-30T05:38:58.601Z,3.20
2018-12-30T05:41:27.383Z,3.33
2018-12-30T05:43:56.209Z,3.90
2018-12-30T05:46:24.955Z,3.37
2018-12-30T05:48:53.743Z,3.40
2018-12-30T05:51:22.561Z,3.10
2018-12-30T05:53:51.867Z,3.53
2018-12-30T05:56:22.752Z,3.50
2018-12-30T05:58:51.972Z,3.60
2018-12-30T06:01:20.734Z,3.47
2018-12-30T06:03:49.654Z,3.43
2018-12-30T06:06:18.416Z,3.93
2018-12-30T06:08:47.205Z,3.00
2018-12-30T06:11:15.972Z,2.92
2018-12-30T06:13:45.013Z,3.43
2018-12-30T06:16:15.035Z,2.83
2018-12-30T06:18:43.835Z,3.50
2018-12-30T06:21:12.811Z,3.50
2018-12-30T06:23:41.694Z,2.60
2018-12-30T06:26:10.470Z,3.17
2018-12-30T06:28:41.010Z,3.30
2018-12-30T06:31:09.814Z,3.23
2018-12-30T06:33:38.569Z,3.77
2018-12-30T06:36:07.348Z,2.97
2018-12-30T06:38:36.103Z,3.20
2018-12-30T06:41:05.028Z,3.50
2018-12-30T06:43:34.058Z,2.90
2018-12-30T06:46:02.939Z,2.83
2018-12-30T06:48:33.489Z,3.13
2018-12-30T06:51:02.399Z,3.47
2018-12-30T06:53:31.259Z,3.00
2018-12-30T06:56:00.041Z,3.63
2018-12-30T06:58:28.921Z,3.73
2018-12-30T07:00:57.666Z,3.83
2018-12-30T07:03:27.287Z,3.60
2018-12-30T07:05:56.964Z,3.53
2018-12-30T07:08:26.275Z,3.53
2018-12-30T07:10:55.174Z,4.03
2018-12-30T07:13:23.957Z,3.63
2018-12-30T07:15:52.915Z,3.00
2018-12-30T07:18:21.710Z,3.63
2018-12-30T07:20:50.461Z,3.37
2018-12-30T07:23:19.206Z,3.57
2018-12-30T07:25:48.478Z,3.37
2018-12-30T07:28:20.617Z,3.57
2018-12-30T07:30:49.433Z,3.93
2018-12-30T07:33:18.690Z,3.53
2018-12-30T07:35:47.575Z,4.27
2018-12-30T07:38:16.448Z,3.60
2018-12-30T07:40:45.270Z,3.63
2018-12-30T07:43:26.686Z,3.83
2018-12-30T07:45:55.575Z,3.30
2018-12-30T07:48:24.414Z,4.10
2018-12-30T07:50:53.242Z,3.63
2018-12-30T07:53:22.025Z,5.03
2018-12-30T07:55:50.770Z,4.27
2018-12-30T07:58:20.271Z,3.90
2018-12-30T08:00:49.370Z,4.27
2018-12-30T08:03:18.204Z,4.00
2018-12-30T08:05:47.010Z,4.73
2018-12-30T08:08:15.832Z,3.77
2018-12-30T08:10:44.611Z,4.20
2018-12-30T08:13:14.106Z,4.80
2018-12-30T08:15:45.287Z,3.80
2018-12-30T08:18:14.334Z,4.27
2018-12-30T08:20:45.428Z,4.20
2018-12-30T08:23:21.269Z,4.10
2018-12-30T08:25:44.903Z,3.53
2018-12-30T08:28:13.839Z,3.90
2018-12-30T08:30:42.762Z,4.10
2018-12-30T08:33:11.502Z,3.80
2018-12-30T08:35:40.394Z,4.23
2018-12-30T08:38:09.440Z,4.20
2018-12-30T08:40:38.310Z,4.13
2018-12-30T08:43:07.239Z,4.20
2018-12-30T08:45:36.044Z,3.17
2018-12-30T08:48:04.830Z,3.93
2018-12-30T08:50:36.072Z,3.40
2018-12-30T08:53:05.490Z,3.70
2018-12-30T08:55:36.053Z,3.33
2018-12-30T08:58:04.855Z,4.50
2018-12-30T09:00:33.600Z,3.37
2018-12-30T09:03:03.213Z,3.80
2018-12-30T09:05:32.051Z,3.53
2018-12-30T09:08:00.962Z,3.93
2018-12-30T09:10:29.754Z,4.70
2018-12-30T09:12:58.956Z,4.15
2018-12-30T09:15:27.722Z,3.87
2018-12-30T09:17:56.869Z,4.13
2018-12-30T09:20:25.644Z,3.83
2018-12-30T09:22:54.538Z,3.83
2018-12-30T09:25:24.282Z,3.20
2018-12-30T09:27:53.347Z,4.03
2018-12-30T09:30:22.341Z,3.60
2018-12-30T09:32:51.237Z,4.83
2018-12-30T09:35:20.151Z,3.80
2018-12-30T09:37:49.171Z,3.47
2018-12-30T09:40:17.995Z,3.30
2018-12-30T09:42:46.977Z,3.57
2018-12-30T09:45:16.075Z,3.20
2018-12-30T09:47:44.864Z,3.60
2018-12-30T09:50:13.755Z,3.60
2018-12-30T09:52:43.359Z,3.67
2018-12-30T09:55:12.281Z,2.70
2018-12-30T09:57:41.128Z,3.17
2018-12-30T10:00:10.065Z,2.83
2018-12-30T10:02:39.198Z,2.97
2018-12-30T10:05:08.103Z,2.77
2018-12-30T10:07:36.932Z,3.20
2018-12-30T10:10:06.072Z,2.97
2018-12-30T10:12:34.911Z,2.87
2018-12-30T10:15:09.562Z,3.00
2018-12-30T10:17:34.784Z,3.20
2018-12-30T10:20:03.900Z,3.27
2018-12-30T10:22:32.827Z,2.87
2018-12-30T10:25:01.814Z,2.80
2018-12-30T10:27:30.964Z,2.63
2018-12-30T10:29:59.846Z,2.67
2018-12-30T10:32:28.757Z,2.60
2018-12-30T10:34:57.657Z,2.70
2018-12-30T10:37:26.594Z,2.37
2018-12-30T10:39:55.511Z,3.07
2018-12-30T10:42:24.398Z,3.00
2018-12-30T10:44:53.243Z,2.77
2018-12-30T10:47:22.364Z,2.93
2018-12-30T10:49:51.168Z,3.23
2018-12-30T10:52:19.972Z,3.00
2018-12-30T10:54:48.883Z,3.20
2018-12-30T10:57:17.703Z,3.30
2018-12-30T10:59:46.542Z,2.83
2018-12-30T11:02:15.434Z,3.73
2018-12-30T11:04:44.335Z,2.80
2018-12-30T11:07:13.432Z,2.80
2018-12-30T11:09:42.305Z,3.37
2018-12-30T11:12:11.183Z,2.87
2018-12-30T11:14:40.213Z,2.93
2018-12-30T11:17:09.045Z,3.00
2018-12-30T11:19:37.849Z,3.67
2018-12-30T11:22:06.656Z,2.40
2018-12-30T11:24:35.550Z,2.70
2018-12-30T11:27:04.501Z,2.77
2018-12-30T11:29:33.398Z,2.83
2018-12-30T11:32:03.027Z,2.50
2018-12-30T11:34:34.174Z,2.57
2018-12-30T11:37:02.996Z,2.33
2018-12-30T11:39:31.809Z,2.40
2018-12-30T11:42:01.163Z,2.37
2018-12-30T11:44:30.820Z,2.70
2018-12-30T11:46:59.660Z,3.50
2018-12-30T11:49:28.756Z,2.43
2018-12-30T11:51:57.710Z,3.20
2018-12-30T11:54:27.076Z,2.67
2018-12-30T11:56:55.914Z,2.70
2018-12-30T11:59:24.934Z,2.57
2018-12-30T12:01:53.732Z,2.87
2018-12-30T12:04:22.609Z,2.60
2018-12-30T12:06:51.727Z,2.70
2018-12-30T12:09:20.682Z,2.50
2018-12-30T12:11:49.484Z,2.73
2018-12-30T12:14:18.434Z,2.57
2018-12-30T12:16:47.353Z,2.33
2018-12-30T12:19:16.223Z,2.70
2018-12-30T12:21:45.046Z,2.63
2018-12-30T12:24:13.970Z,2.27
2018-12-30T12:26:42.838Z,2.90
2018-12-30T12:29:12.124Z,2.33
2018-12-30T12:31:41.179Z,2.37
2018-12-30T12:34:10.031Z,2.47
2018-12-30T12:36:38.837Z,2.90
2018-12-30T12:39:08.078Z,3.30
2018-12-30T12:41:36.920Z,2.73
2018-12-30T12:44:06.299Z,2.70
2018-12-30T12:46:35.209Z,2.33
2018-12-30T12:49:04.668Z,3.00
2018-12-30T12:51:34.151Z,2.80
2018-12-30T12:54:02.963Z,2.97
2018-12-30T12:56:32.460Z,3.37
2018-12-30T12:59:01.357Z,2.20
2018-12-30T13:01:30.191Z,2.70
2018-12-30T13:03:59.064Z,2.50
2018-12-30T13:06:30.224Z,3.00
2018-12-30T13:08:59.362Z,3.00
2018-12-30T13:11:28.194Z,3.00
2018-12-30T13:13:57.241Z,2.67
2018-12-30T13:16:26.157Z,2.70
2018-12-30T13:18:55.029Z,2.53
2018-12-30T13:21:23.880Z,2.90
2018-12-30T13:23:52.831Z,2.73
2018-12-30T13:26:22.121Z,3.07
2018-12-30T13:28:51.670Z,2.40
2018-12-30T13:31:20.494Z,2.33
2018-12-30T13:33:49.467Z,3.50
2018-12-30T13:36:18.921Z,2.97
2018-12-30T13:38:50.209Z,2.72
2018-12-30T13:41:19.220Z,2.83
2018-12-30T13:43:48.792Z,2.77
2018-12-30T13:46:18.482Z,3.17
2018-12-30T13:48:47.438Z,5.90
2018-12-30T13:51:16.243Z,3.43
2018-12-30T13:53:45.091Z,2.90
2018-12-30T13:56:14.888Z,2.73
2018-12-30T13:58:44.025Z,2.77
2018-12-30T14:01:12.976Z,3.17
2018-12-30T14:03:41.795Z,2.47
2018-12-30T14:06:11.075Z,2.80
2018-12-30T14:08:39.881Z,3.27
2018-12-30T14:11:08.736Z,3.17
2018-12-30T14:13:38.311Z,3.83
2018-12-30T14:16:07.440Z,2.80
2018-12-30T14:18:36.478Z,2.67
2018-12-30T14:21:05.327Z,2.83
2018-12-30T14:23:34.877Z,2.90
2018-12-30T14:26:03.784Z,2.53
2018-12-30T14:28:32.548Z,3.10
2018-12-30T14:31:01.606Z,2.70
2018-12-30T14:33:30.579Z,3.07
2018-12-30T14:35:59.840Z,2.90
2018-12-30T14:38:28.642Z,2.73
2018-12-30T14:40:57.498Z,2.93
2018-12-30T14:43:26.355Z,3.07
2018-12-30T14:45:55.486Z,2.80
2018-12-30T14:48:25.011Z,3.30
2018-12-30T14:50:53.779Z,2.97
2018-12-30T14:53:22.762Z,3.00
2018-12-30T14:55:51.562Z,2.73
2018-12-30T14:58:20.864Z,2.80
2018-12-30T15:00:49.922Z,2.70
2018-12-30T15:03:19.213Z,3.00
2018-12-30T15:05:48.054Z,2.77
2018-12-30T15:08:16.935Z,2.70
2018-12-30T15:10:45.804Z,2.50
2018-12-30T15:13:14.658Z,2.57
2018-12-30T15:15:43.588Z,2.40
2018-12-30T15:18:12.642Z,2.87
2018-12-30T15:20:44.227Z,2.60
2018-12-30T15:23:13.370Z,2.70
2018-12-30T15:25:42.388Z,3.53
2018-12-30T15:28:11.733Z,3.17
2018-12-30T15:30:40.603Z,3.80
2018-12-30T15:33:09.399Z,3.60
2018-12-30T15:35:38.237Z,3.87
2018-12-30T15:38:07.246Z,3.67
2018-12-30T15:40:36.871Z,3.70
2018-12-30T15:43:07.534Z,3.50
2018-12-30T15:45:36.548Z,4.10
2018-12-30T15:48:06.051Z,3.67
2018-12-30T15:50:35.596Z,3.80
2018-12-30T15:53:04.503Z,3.77
2018-12-30T15:55:35.067Z,5.27
2018-12-30T15:58:03.973Z,3.87
2018-12-30T16:00:33.116Z,4.03
2018-12-30T16:03:02.000Z,3.87
2018-12-30T16:05:30.896Z,4.07
2018-12-30T16:07:59.867Z,4.07
2018-12-30T16:10:28.831Z,4.73
2018-12-30T16:12:59.953Z,5.10
2018-12-30T16:15:29.420Z,5.50
2018-12-30T16:17:58.350Z,5.00
2018-12-30T16:20:27.204Z,5.20
2018-12-30T16:22:55.976Z,6.07
2018-12-30T16:25:27.387Z,5.90
2018-12-30T16:27:55.676Z,5.40
2018-12-30T16:30:25.261Z,5.90
2018-12-30T16:32:54.194Z,6.57
2018-12-30T16:35:23.230Z,6.87
2018-12-30T16:37:52.079Z,5.83
2018-12-30T16:40:21.631Z,6.50
2018-12-30T16:42:50.428Z,6.40
2018-12-30T16:45:19.267Z,6.23
2018-12-30T16:47:48.076Z,6.53
2018-12-30T16:50:17.704Z,6.63
2018-12-30T16:52:47.362Z,7.30
2018-12-30T16:55:16.924Z,7.03
2018-12-30T16:57:47.539Z,7.97
2018-12-30T17:00:16.586Z,8.03
2018-12-30T17:02:45.453Z,8.13
2018-12-30T17:05:14.263Z,9.00
2018-12-30T17:07:43.342Z,8.73
2018-12-30T17:10:12.225Z,9.73
2018-12-30T17:12:41.110Z,9.70
2018-12-30T17:15:10.094Z,10.10
2018-12-30T17:17:41.737Z,10.13
2018-12-30T17:20:10.695Z,11.10
2018-12-30T17:22:40.252Z,11.23
2018-12-30T17:25:09.107Z,10.90
2018-12-30T17:27:38.662Z,11.93
2018-12-30T17:30:08.461Z,11.63
2018-12-30T17:32:37.468Z,12.80
2018-12-30T17:35:06.316Z,12.80
2018-12-30T17:37:35.140Z,13.30
2018-12-30T17:40:04.275Z,13.23
2018-12-30T17:42:33.119Z,14.23
2018-12-30T17:45:02.280Z,14.67
2018-12-30T17:47:31.116Z,15.10
2018-12-30T17:50:02.417Z,16.23
2018-12-30T17:52:31.384Z,15.23
2018-12-30T17:55:00.751Z,15.80
2018-12-30T17:57:29.651Z,15.90
2018-12-30T17:59:58.588Z,16.27
2018-12-30T18:02:27.504Z,15.87
2018-12-30T18:04:56.328Z,16.33
2018-12-30T18:07:25.361Z,17.20
2018-12-30T18:09:54.248Z,17.77
2018-12-30T18:12:23.108Z,17.77
2018-12-30T18:14:54.757Z,17.03
2018-12-30T18:17:23.752Z,18.70
2018-12-30T18:19:52.759Z,18.87
2018-12-30T18:22:21.763Z,19.23
2018-12-30T18:24:50.570Z,19.37
2018-12-30T18:27:19.766Z,20.07
2018-12-30T18:29:48.729Z,20.27
2018-12-30T18:32:17.944Z,20.47
2018-12-30T18:34:48.960Z,19.47
2018-12-30T18:37:18.090Z,21.23
2018-12-30T18:39:46.890Z,20.07
2018-12-30T18:42:15.747Z,20.83
2018-12-30T18:44:44.559Z,20.73
2018-12-30T18:47:13.382Z,20.40
2018-12-30T18:49:42.241Z,21.20
2018-12-30T18:52:11.108Z,21.37
2018-12-30T18:54:41.865Z,21.60
2018-12-30T18:57:10.938Z,20.40
2018-12-30T18:59:39.851Z,22.93
2018-12-30T19:02:08.919Z,22.07
2018-12-30T19:04:38.268Z,21.93
2018-12-30T19:07:07.279Z,22.30
2018-12-30T19:09:36.207Z,21.77
2018-12-30T19:12:05.550Z,23.57
2018-12-30T19:14:34.503Z,21.80
2018-12-30T19:17:03.496Z,21.47
2018-12-30T19:19:32.408Z,23.40
2018-12-30T19:22:01.379Z,22.93
2018-12-30T19:24:30.392Z,21.67
2018-12-30T19:26:59.224Z,21.80
2018-12-30T19:29:28.107Z,22.37
2018-12-30T19:31:57.364Z,22.47
2018-12-30T19:34:26.619Z,22.00
2018-12-30T19:36:55.731Z,22.97
2018-12-30T19:39:24.705Z,21.67
2018-12-30T19:41:53.579Z,22.90
2018-12-30T19:44:22.618Z,23.17
2018-12-30T19:46:51.883Z,22.80
2018-12-30T19:49:20.836Z,23.37
2018-12-30T19:51:49.760Z,22.10
2018-12-30T19:54:20.691Z,22.07
2018-12-30T19:56:49.928Z,23.10
2018-12-30T19:59:19.201Z,23.83
2018-12-30T20:01:48.064Z,23.37
2018-12-30T20:04:17.049Z,24.30
2018-12-30T20:06:45.977Z,23.37
2018-12-30T20:09:14.763Z,24.40
2018-12-30T20:11:43.641Z,24.50
2018-12-30T20:14:12.825Z,24.97
2018-12-30T20:16:41.747Z,24.57
2018-12-30T20:19:10.674Z,24.70
2018-12-30T20:21:39.627Z,25.27
2018-12-30T20:24:08.779Z,25.23
2018-12-30T20:26:39.946Z,25.93
2018-12-30T20:29:08.833Z,24.57
2018-12-30T20:31:37.895Z,26.27
2018-12-30T20:34:08.826Z,25.12
2018-12-30T20:36:37.775Z,26.50
2018-12-30T20:39:07.635Z,27.03
2018-12-30T20:41:37.307Z,26.80
2018-12-30T20:44:06.206Z,26.60
2018-12-30T20:46:35.219Z,27.13
2018-12-30T20:49:04.382Z,27.53
2018-12-30T20:51:33.540Z,28.73
2018-12-30T20:54:03.298Z,27.77
2018-12-30T20:56:37.607Z,30.40
2018-12-30T20:59:02.755Z,30.27
2018-12-30T21:01:31.709Z,28.20
2018-12-30T21:04:00.829Z,30.00
2018-12-30T21:06:30.071Z,29.80
2018-12-30T21:08:59.099Z,29.00
2018-12-30T21:11:28.250Z,28.50
2018-12-30T21:13:57.307Z,28.67
2018-12-30T21:16:26.242Z,27.97
2018-12-30T21:18:55.053Z,27.27
2018-12-30T21:21:24.065Z,29.50
2018-12-30T21:23:52.980Z,28.20
2018-12-30T21:26:24.062Z,27.40
2018-12-30T21:28:52.920Z,25.70
2018-12-30T21:31:21.850Z,27.27
2018-12-30T21:33:50.842Z,26.80
2018-12-30T21:36:19.753Z,25.77
2018-12-30T21:38:48.864Z,26.27
2018-12-30T21:41:17.878Z,25.67
2018-12-30T21:43:48.913Z,25.33
2018-12-30T21:46:17.779Z,24.63
2018-12-30T21:48:46.597Z,23.40
2018-12-30T21:51:15.673Z,26.97
2018-12-30T21:53:44.531Z,25.70
2018-12-30T21:56:14.083Z,24.30
2018-12-30T21:58:43.159Z,23.93
2018-12-30T22:01:12.065Z,24.52
2018-12-30T22:03:41.529Z,23.87
2018-12-30T22:06:10.412Z,21.20
2018-12-30T22:08:39.401Z,22.53
2018-12-30T22:11:08.267Z,22.87
2018-12-30T22:13:37.103Z,23.23
2018-12-30T22:16:06.661Z,22.20
2018-12-30T22:18:35.563Z,22.80
2018-12-30T22:21:04.509Z,21.97
2018-12-30T22:23:33.826Z,23.30
2018-12-30T22:26:02.822Z,23.30
2018-12-30T22:28:32.476Z,22.30
2018-12-30T22:31:03.297Z,21.43
2018-12-30T22:33:32.484Z,21.97
2018-12-30T22:36:04.016Z,21.67
2018-12-30T22:38:33.022Z,20.17
2018-12-30T22:41:01.801Z,21.00
2018-12-30T22:43:30.861Z,19.70
2018-12-30T22:45:59.934Z,19.43
2018-12-30T22:48:28.880Z,19.20
2018-12-30T22:50:57.716Z,18.90
2018-12-30T22:53:26.547Z,18.23
2018-12-30T22:55:55.506Z,18.17
2018-12-30T22:58:24.358Z,17.77
2018-12-30T23:01:02.631Z,16.60
2018-12-30T23:03:31.688Z,16.97
2018-12-30T23:06:00.761Z,17.07
2018-12-30T23:08:29.983Z,16.73
2018-12-30T23:10:58.837Z,15.47
2018-12-30T23:13:27.714Z,15.93
2018-12-30T23:15:56.538Z,15.97
2018-12-30T23:18:25.467Z,16.27
2018-12-30T23:20:54.565Z,14.97
2018-12-30T23:23:23.511Z,15.17
2018-12-30T23:25:52.883Z,15.00
2018-12-30T23:28:21.922Z,14.73
2018-12-30T23:30:50.925Z,14.43
2018-12-30T23:33:21.845Z,13.47
2018-12-30T23:35:51.720Z,13.80
2018-12-30T23:38:20.557Z,13.70
2018-12-30T23:40:49.652Z,14.67
2018-12-30T23:43:18.554Z,13.90
2018-12-30T23:45:47.477Z,14.77
2018-12-30T23:48:16.319Z,14.27
2018-12-30T23:50:45.110Z,13.60
2018-12-30T23:53:14.062Z,13.77
2018-12-30T23:55:43.046Z,13.73
2018-12-30T23:58:12.903Z,14.13
